sensor_id;sensor_type;location;lat;lon;timestamp;P1;durP1;ratioP1;P2;durP2;ratioP2
38262;SDS011;24054;50.128;19.730;2023-06-01T03:40:01;5.35;;;3.63;;
38262;SDS011;24054;50.128;19.730;2023-06-01T03:42:35;4.60;;;2.97;;
38262;SDS011;24054;50.128;19.730;2023-06-01T03:45:02;6.35;;;4.03;;
38262;SDS011;24054;50.128;19.730;2023-06-01T03:47:30;5.10;;;3.40;;
38262;SDS011;24054;50.128;19.730;2023-06-01T03:49:57;4.13;;;3.10;;
38262;SDS011;24054;50.128;19.730;2023-06-01T03:52:24;4.15;;;3.17;;
38262;SDS011;24054;50.128;19.730;2023-06-01T03:54:52;5.43;;;3.90;;
38262;SDS011;24054;50.128;19.730;2023-06-01T03:57:20;4.18;;;3.13;;
38262;SDS011;24054;50.128;19.730;2023-06-01T03:59:47;4.85;;;2.97;;
38262;SDS011;24054;50.128;19.730;2023-06-01T04:02:14;4.68;;;3.47;;
38262;SDS011;24054;50.128;19.730;2023-06-01T04:04:44;3.85;;;2.85;;
38262;SDS011;24054;50.128;19.730;2023-06-01T04:07:12;5.13;;;3.00;;
38262;SDS011;24054;50.128;19.730;2023-06-01T04:09:43;5.50;;;3.03;;
38262;SDS011;24054;50.128;19.730;2023-06-01T04:12:14;5.20;;;3.38;;
38262;SDS011;24054;50.128;19.730;2023-06-01T04:14:42;4.20;;;3.28;;
38262;SDS011;24054;50.128;19.730;2023-06-01T04:17:09;4.50;;;3.28;;
38262;SDS011;24054;50.128;19.730;2023-06-01T04:19:37;4.10;;;3.05;;
38262;SDS011;24054;50.128;19.730;2023-06-01T04:24:31;5.82;;;3.28;;
38262;SDS011;24054;50.128;19.730;2023-06-01T04:26:58;4.50;;;3.03;;
38262;SDS011;24054;50.128;19.730;2023-06-01T04:29:25;5.57;;;3.40;;
38262;SDS011;24054;50.128;19.730;2023-06-01T04:31:54;5.25;;;3.10;;
38262;SDS011;24054;50.128;19.730;2023-06-01T04:34:21;5.38;;;3.20;;
38262;SDS011;24054;50.128;19.730;2023-06-01T04:36:49;6.80;;;3.20;;
38262;SDS011;24054;50.128;19.730;2023-06-01T04:39:16;5.45;;;3.45;;
38262;SDS011;24054;50.128;19.730;2023-06-01T04:41:43;5.15;;;3.30;;
38262;SDS011;24054;50.128;19.730;2023-06-01T04:44:10;5.05;;;3.05;;
38262;SDS011;24054;50.128;19.730;2023-06-01T04:46:38;3.88;;;2.88;;
38262;SDS011;24054;50.128;19.730;2023-06-01T04:49:07;5.37;;;3.27;;
38262;SDS011;24054;50.128;19.730;2023-06-01T04:51:37;5.38;;;3.38;;
38262;SDS011;24054;50.128;19.730;2023-06-01T04:54:05;5.15;;;3.05;;
38262;SDS011;24054;50.128;19.730;2023-06-01T04:56:32;3.95;;;3.00;;
38262;SDS011;24054;50.128;19.730;2023-06-01T04:58:59;4.82;;;3.33;;
38262;SDS011;24054;50.128;19.730;2023-06-01T05:01:26;4.03;;;3.10;;
38262;SDS011;24054;50.128;19.730;2023-06-01T05:03:54;3.72;;;2.83;;
38262;SDS011;24054;50.128;19.730;2023-06-01T05:06:23;4.38;;;3.30;;
38262;SDS011;24054;50.128;19.730;2023-06-01T05:08:51;5.60;;;3.70;;
38262;SDS011;24054;50.128;19.730;2023-06-01T05:11:18;5.82;;;3.83;;
38262;SDS011;24054;50.128;19.730;2023-06-01T05:13:46;4.15;;;3.28;;
38262;SDS011;24054;50.128;19.730;2023-06-01T05:16:13;4.63;;;3.58;;
38262;SDS011;24054;50.128;19.730;2023-06-01T05:18:40;4.75;;;3.58;;
38262;SDS011;24054;50.128;19.730;2023-06-01T05:21:07;4.82;;;2.97;;
38262;SDS011;24054;50.128;19.730;2023-06-01T05:23:35;3.88;;;3.03;;
38262;SDS011;24054;50.128;19.730;2023-06-01T05:26:02;5.03;;;3.70;;
38262;SDS011;24054;50.128;19.730;2023-06-01T05:28:31;3.72;;;3.10;;
38262;SDS011;24054;50.128;19.730;2023-06-01T05:30:59;3.92;;;3.10;;
38262;SDS011;24054;50.128;19.730;2023-06-01T05:33:26;3.65;;;2.88;;
38262;SDS011;24054;50.128;19.730;2023-06-01T05:35:53;5.07;;;3.60;;
38262;SDS011;24054;50.128;19.730;2023-06-01T05:38:20;4.90;;;3.30;;
38262;SDS011;24054;50.128;19.730;2023-06-01T05:40:48;5.65;;;3.08;;
38262;SDS011;24054;50.128;19.730;2023-06-01T05:43:15;5.88;;;3.72;;
38262;SDS011;24054;50.128;19.730;2023-06-01T05:45:42;4.40;;;3.08;;
38262;SDS011;24054;50.128;19.730;2023-06-01T05:48:09;6.45;;;3.33;;
38262;SDS011;24054;50.128;19.730;2023-06-01T05:50:38;5.78;;;3.65;;
38262;SDS011;24054;50.128;19.730;2023-06-01T05:53:06;5.03;;;3.23;;
38262;SDS011;24054;50.128;19.730;2023-06-01T05:55:34;6.80;;;3.88;;
38262;SDS011;24054;50.128;19.730;2023-06-01T05:58:04;9.65;;;3.35;;
38262;SDS011;24054;50.128;19.730;2023-06-01T06:00:32;4.10;;;3.22;;
38262;SDS011;24054;50.128;19.730;2023-06-01T06:03:00;5.15;;;3.70;;
38262;SDS011;24054;50.128;19.730;2023-06-01T06:05:27;5.22;;;3.53;;
38262;SDS011;24054;50.128;19.730;2023-06-01T06:07:54;6.88;;;3.90;;
38262;SDS011;24054;50.128;19.730;2023-06-01T06:10:21;4.57;;;3.60;;
38262;SDS011;24054;50.128;19.730;2023-06-01T06:12:48;6.13;;;3.47;;
38262;SDS011;24054;50.128;19.730;2023-06-01T06:15:17;7.10;;;4.18;;
38262;SDS011;24054;50.128;19.730;2023-06-01T06:17:44;6.57;;;3.70;;
38262;SDS011;24054;50.128;19.730;2023-06-01T06:20:11;9.20;;;4.25;;
38262;SDS011;24054;50.128;19.730;2023-06-01T06:22:40;8.05;;;4.80;;
38262;SDS011;24054;50.128;19.730;2023-06-01T06:25:07;7.93;;;4.85;;
38262;SDS011;24054;50.128;19.730;2023-06-01T06:27:36;6.68;;;3.95;;
38262;SDS011;24054;50.128;19.730;2023-06-01T06:30:04;9.50;;;4.50;;
38262;SDS011;24054;50.128;19.730;2023-06-01T06:32:34;5.57;;;4.00;;
38262;SDS011;24054;50.128;19.730;2023-06-01T06:35:01;5.63;;;4.15;;
38262;SDS011;24054;50.128;19.730;2023-06-01T06:37:28;9.63;;;4.53;;
38262;SDS011;24054;50.128;19.730;2023-06-01T06:39:55;7.93;;;4.78;;
38262;SDS011;24054;50.128;19.730;2023-06-01T06:42:26;6.18;;;4.40;;
38262;SDS011;24054;50.128;19.730;2023-06-01T06:44:53;6.75;;;4.22;;
38262;SDS011;24054;50.128;19.730;2023-06-01T06:49:51;5.50;;;4.30;;
38262;SDS011;24054;50.128;19.730;2023-06-01T06:52:18;7.28;;;4.95;;
38262;SDS011;24054;50.128;19.730;2023-06-01T06:54:45;6.93;;;4.25;;
38262;SDS011;24054;50.128;19.730;2023-06-01T06:57:13;5.93;;;3.72;;
38262;SDS011;24054;50.128;19.730;2023-06-01T06:59:40;6.35;;;4.20;;
38262;SDS011;24054;50.128;19.730;2023-06-01T07:02:06;5.90;;;4.20;;
38262;SDS011;24054;50.128;19.730;2023-06-01T07:04:33;7.50;;;4.53;;
38262;SDS011;24054;50.128;19.730;2023-06-01T07:07:02;6.45;;;4.65;;
38262;SDS011;24054;50.128;19.730;2023-06-01T07:09:29;7.05;;;4.43;;
38262;SDS011;24054;50.128;19.730;2023-06-01T07:11:56;5.88;;;4.28;;
38262;SDS011;24054;50.128;19.730;2023-06-01T07:14:23;8.90;;;4.72;;
38262;SDS011;24054;50.128;19.730;2023-06-01T07:16:50;5.72;;;4.13;;
38262;SDS011;24054;50.128;19.730;2023-06-01T07:19:17;6.82;;;4.00;;
38262;SDS011;24054;50.128;19.730;2023-06-01T07:21:44;4.90;;;4.18;;
38262;SDS011;24054;50.128;19.730;2023-06-01T07:24:13;5.88;;;4.25;;
38262;SDS011;24054;50.128;19.730;2023-06-01T07:29:07;5.45;;;4.00;;
38262;SDS011;24054;50.128;19.730;2023-06-01T07:31:34;5.68;;;4.43;;
38262;SDS011;24054;50.128;19.730;2023-06-01T07:34:01;5.20;;;3.78;;
38262;SDS011;24054;50.128;19.730;2023-06-01T07:36:28;6.50;;;4.45;;
38262;SDS011;24054;50.128;19.730;2023-06-01T07:39:02;7.50;;;4.30;;
38262;SDS011;24054;50.128;19.730;2023-06-01T07:41:32;5.05;;;4.15;;
38262;SDS011;24054;50.128;19.730;2023-06-01T07:43:59;7.75;;;4.70;;
38262;SDS011;24054;50.128;19.730;2023-06-01T07:46:26;5.85;;;3.70;;
38262;SDS011;24054;50.128;19.730;2023-06-01T07:48:53;6.53;;;4.07;;
38262;SDS011;24054;50.128;19.730;2023-06-01T07:51:22;6.03;;;4.53;;
38262;SDS011;24054;50.128;19.730;2023-06-01T07:53:49;10.13;;;4.47;;
38262;SDS011;24054;50.128;19.730;2023-06-01T07:56:16;5.70;;;4.25;;
38262;SDS011;24054;50.128;19.730;2023-06-01T07:58:45;6.05;;;4.43;;
38262;SDS011;24054;50.128;19.730;2023-06-01T08:01:12;6.50;;;4.72;;
38262;SDS011;24054;50.128;19.730;2023-06-01T08:03:41;5.65;;;4.05;;
38262;SDS011;24054;50.128;19.730;2023-06-01T08:06:09;7.20;;;4.35;;
38262;SDS011;24054;50.128;19.730;2023-06-01T08:08:36;7.88;;;4.75;;
38262;SDS011;24054;50.128;19.730;2023-06-01T08:11:05;5.40;;;4.40;;
38262;SDS011;24054;50.128;19.730;2023-06-01T08:13:32;5.65;;;4.38;;
38262;SDS011;24054;50.128;19.730;2023-06-01T08:16:02;6.15;;;4.10;;
38262;SDS011;24054;50.128;19.730;2023-06-01T08:18:30;6.55;;;4.20;;
38262;SDS011;24054;50.128;19.730;2023-06-01T08:20:57;5.88;;;3.90;;
38262;SDS011;24054;50.128;19.730;2023-06-01T08:23:25;7.32;;;4.10;;
38262;SDS011;24054;50.128;19.730;2023-06-01T08:25:52;4.65;;;3.40;;
38262;SDS011;24054;50.128;19.730;2023-06-01T08:28:20;6.43;;;4.78;;
38262;SDS011;24054;50.128;19.730;2023-06-01T08:30:47;8.05;;;4.10;;
38262;SDS011;24054;50.128;19.730;2023-06-01T08:33:15;4.65;;;3.70;;
38262;SDS011;24054;50.128;19.730;2023-06-01T08:35:42;4.55;;;3.25;;
38262;SDS011;24054;50.128;19.730;2023-06-01T08:38:09;7.60;;;3.63;;
38262;SDS011;24054;50.128;19.730;2023-06-01T08:40:37;7.72;;;3.17;;
38262;SDS011;24054;50.128;19.730;2023-06-01T08:43:07;5.50;;;2.75;;
38262;SDS011;24054;50.128;19.730;2023-06-01T08:45:39;4.40;;;2.95;;
38262;SDS011;24054;50.128;19.730;2023-06-01T08:48:07;6.00;;;2.93;;
38262;SDS011;24054;50.128;19.730;2023-06-01T08:50:36;6.70;;;3.07;;
38262;SDS011;24054;50.128;19.730;2023-06-01T08:55:31;4.72;;;2.78;;
38262;SDS011;24054;50.128;19.730;2023-06-01T08:57:58;5.97;;;2.60;;
38262;SDS011;24054;50.128;19.730;2023-06-01T09:00:25;5.72;;;2.70;;
38262;SDS011;24054;50.128;19.730;2023-06-01T09:02:53;5.30;;;2.53;;
38262;SDS011;24054;50.128;19.730;2023-06-01T09:05:21;4.53;;;2.58;;
38262;SDS011;24054;50.128;19.730;2023-06-01T09:07:49;2.97;;;2.47;;
38262;SDS011;24054;50.128;19.730;2023-06-01T09:10:21;5.28;;;3.13;;
38262;SDS011;24054;50.128;19.730;2023-06-01T09:12:53;5.85;;;2.88;;
38262;SDS011;24054;50.128;19.730;2023-06-01T09:15:23;5.32;;;2.92;;
38262;SDS011;24054;50.128;19.730;2023-06-01T09:17:51;4.13;;;2.77;;
38262;SDS011;24054;50.128;19.730;2023-06-01T09:20:30;5.05;;;2.63;;
38262;SDS011;24054;50.128;19.730;2023-06-01T09:22:59;9.77;;;3.38;;
38262;SDS011;24054;50.128;19.730;2023-06-01T09:25:27;6.38;;;3.05;;
38262;SDS011;24054;50.128;19.730;2023-06-01T09:27:56;10.77;;;3.28;;
38262;SDS011;24054;50.128;19.730;2023-06-01T09:30:24;6.03;;;2.83;;
38262;SDS011;24054;50.128;19.730;2023-06-01T09:33:06;5.93;;;2.72;;
38262;SDS011;24054;50.128;19.730;2023-06-01T09:35:39;4.72;;;2.80;;
38262;SDS011;24054;50.128;19.730;2023-06-01T09:38:09;6.50;;;3.15;;
38262;SDS011;24054;50.128;19.730;2023-06-01T09:40:37;7.38;;;2.60;;
38262;SDS011;24054;50.128;19.730;2023-06-01T09:43:18;8.10;;;3.10;;
38262;SDS011;24054;50.128;19.730;2023-06-01T09:45:49;5.50;;;2.97;;
38262;SDS011;24054;50.128;19.730;2023-06-01T09:48:31;6.00;;;3.15;;
38262;SDS011;24054;50.128;19.730;2023-06-01T09:51:01;6.10;;;2.72;;
38262;SDS011;24054;50.128;19.730;2023-06-01T09:53:40;6.25;;;2.80;;
38262;SDS011;24054;50.128;19.730;2023-06-01T09:56:07;6.22;;;3.15;;
38262;SDS011;24054;50.128;19.730;2023-06-01T09:58:35;7.90;;;3.75;;
38262;SDS011;24054;50.128;19.730;2023-06-01T10:01:04;4.53;;;2.80;;
38262;SDS011;24054;50.128;19.730;2023-06-01T10:03:33;5.47;;;3.25;;
38262;SDS011;24054;50.128;19.730;2023-06-01T10:06:03;4.43;;;2.83;;
38262;SDS011;24054;50.128;19.730;2023-06-01T10:08:33;5.10;;;2.90;;
38262;SDS011;24054;50.128;19.730;2023-06-01T10:11:02;6.70;;;3.63;;
38262;SDS011;24054;50.128;19.730;2023-06-01T10:13:29;5.60;;;3.10;;
38262;SDS011;24054;50.128;19.730;2023-06-01T10:15:57;6.28;;;3.28;;
38262;SDS011;24054;50.128;19.730;2023-06-01T10:18:24;7.90;;;2.88;;
38262;SDS011;24054;50.128;19.730;2023-06-01T10:20:52;3.97;;;2.65;;
38262;SDS011;24054;50.128;19.730;2023-06-01T10:23:21;6.78;;;2.80;;
38262;SDS011;24054;50.128;19.730;2023-06-01T10:25:49;3.70;;;2.90;;
38262;SDS011;24054;50.128;19.730;2023-06-01T10:28:19;6.68;;;3.05;;
38262;SDS011;24054;50.128;19.730;2023-06-01T10:31:02;3.53;;;2.65;;
38262;SDS011;24054;50.128;19.730;2023-06-01T10:33:59;3.65;;;2.78;;
38262;SDS011;24054;50.128;19.730;2023-06-01T10:39:26;4.20;;;2.33;;
38262;SDS011;24054;50.128;19.730;2023-06-01T10:41:55;3.63;;;2.67;;
38262;SDS011;24054;50.128;19.730;2023-06-01T10:44:46;4.70;;;3.05;;
38262;SDS011;24054;50.128;19.730;2023-06-01T10:50:16;6.03;;;2.28;;
38262;SDS011;24054;50.128;19.730;2023-06-01T10:52:44;9.93;;;2.55;;
38262;SDS011;24054;50.128;19.730;2023-06-01T10:55:19;4.03;;;3.08;;
38262;SDS011;24054;50.128;19.730;2023-06-01T10:57:48;3.67;;;2.83;;
38262;SDS011;24054;50.128;19.730;2023-06-01T11:00:18;4.15;;;2.85;;
38262;SDS011;24054;50.128;19.730;2023-06-01T11:02:57;4.80;;;2.75;;
38262;SDS011;24054;50.128;19.730;2023-06-01T11:05:44;4.00;;;2.97;;
38262;SDS011;24054;50.128;19.730;2023-06-01T11:11:18;4.88;;;2.47;;
38262;SDS011;24054;50.128;19.730;2023-06-01T11:14:07;5.10;;;3.20;;
38262;SDS011;24054;50.128;19.730;2023-06-01T11:16:39;4.13;;;2.95;;
38262;SDS011;24054;50.128;19.730;2023-06-01T11:19:07;7.03;;;2.72;;
38262;SDS011;24054;50.128;19.730;2023-06-01T11:21:37;4.32;;;2.72;;
38262;SDS011;24054;50.128;19.730;2023-06-01T11:24:09;5.25;;;3.47;;
38262;SDS011;24054;50.128;19.730;2023-06-01T11:26:38;4.70;;;3.08;;
38262;SDS011;24054;50.128;19.730;2023-06-01T11:29:07;3.70;;;3.05;;
38262;SDS011;24054;50.128;19.730;2023-06-01T11:31:37;2.65;;;2.40;;
38262;SDS011;24054;50.128;19.730;2023-06-01T11:34:07;5.22;;;2.90;;
38262;SDS011;24054;50.128;19.730;2023-06-01T11:36:37;3.38;;;2.88;;
38262;SDS011;24054;50.128;19.730;2023-06-01T11:39:05;5.45;;;2.58;;
38262;SDS011;24054;50.128;19.730;2023-06-01T11:41:47;5.70;;;2.75;;
38262;SDS011;24054;50.128;19.730;2023-06-01T11:44:18;3.38;;;2.60;;
38262;SDS011;24054;50.128;19.730;2023-06-01T11:46:56;4.80;;;2.80;;
38262;SDS011;24054;50.128;19.730;2023-06-01T11:49:24;3.30;;;2.53;;
38262;SDS011;24054;50.128;19.730;2023-06-01T11:51:54;4.65;;;3.00;;
38262;SDS011;24054;50.128;19.730;2023-06-01T11:54:25;4.40;;;2.55;;
38262;SDS011;24054;50.128;19.730;2023-06-01T11:56:54;5.50;;;3.00;;
38262;SDS011;24054;50.128;19.730;2023-06-01T11:59:21;3.80;;;2.90;;
38262;SDS011;24054;50.128;19.730;2023-06-01T12:01:49;4.93;;;3.10;;
38262;SDS011;24054;50.128;19.730;2023-06-01T12:04:20;3.08;;;2.58;;
38262;SDS011;24054;50.128;19.730;2023-06-01T12:06:50;3.45;;;2.45;;
38262;SDS011;24054;50.128;19.730;2023-06-01T12:09:18;3.25;;;2.70;;
38262;SDS011;24054;50.128;19.730;2023-06-01T12:11:46;5.82;;;2.83;;
38262;SDS011;24054;50.128;19.730;2023-06-01T12:14:14;5.68;;;2.83;;
38262;SDS011;24054;50.128;19.730;2023-06-01T12:16:54;4.15;;;2.47;;
38262;SDS011;24054;50.128;19.730;2023-06-01T12:24:25;3.58;;;2.60;;
38262;SDS011;24054;50.128;19.730;2023-06-01T12:26:54;3.17;;;2.47;;
38262;SDS011;24054;50.128;19.730;2023-06-01T12:29:34;6.65;;;2.72;;
38262;SDS011;24054;50.128;19.730;2023-06-01T12:32:10;2.95;;;2.55;;
38262;SDS011;24054;50.128;19.730;2023-06-01T12:34:41;4.32;;;2.50;;
38262;SDS011;24054;50.128;19.730;2023-06-01T12:37:16;3.70;;;2.30;;
38262;SDS011;24054;50.128;19.730;2023-06-01T12:39:52;5.13;;;2.92;;
38262;SDS011;24054;50.128;19.730;2023-06-01T12:42:32;3.45;;;2.45;;
38262;SDS011;24054;50.128;19.730;2023-06-01T12:45:01;5.15;;;3.00;;
38262;SDS011;24054;50.128;19.730;2023-06-01T12:47:34;6.05;;;3.38;;
38262;SDS011;24054;50.128;19.730;2023-06-01T12:50:03;3.67;;;2.63;;
38262;SDS011;24054;50.128;19.730;2023-06-01T12:52:31;3.47;;;2.63;;
38262;SDS011;24054;50.128;19.730;2023-06-01T12:54:58;3.45;;;2.58;;
38262;SDS011;24054;50.128;19.730;2023-06-01T12:57:25;6.00;;;2.58;;
38262;SDS011;24054;50.128;19.730;2023-06-01T12:59:52;4.65;;;2.72;;
38262;SDS011;24054;50.128;19.730;2023-06-01T13:02:20;3.08;;;2.58;;
38262;SDS011;24054;50.128;19.730;2023-06-01T13:04:48;3.78;;;2.50;;
38262;SDS011;24054;50.128;19.730;2023-06-01T13:07:17;2.90;;;2.15;;
38262;SDS011;24054;50.128;19.730;2023-06-01T13:09:44;4.30;;;3.03;;
38262;SDS011;24054;50.128;19.730;2023-06-01T13:12:11;4.10;;;2.33;;
38262;SDS011;24054;50.128;19.730;2023-06-01T13:14:38;4.38;;;2.92;;
38262;SDS011;24054;50.128;19.730;2023-06-01T13:17:05;5.15;;;2.80;;
38262;SDS011;24054;50.128;19.730;2023-06-01T13:19:36;3.70;;;2.70;;
38262;SDS011;24054;50.128;19.730;2023-06-01T13:22:03;3.83;;;2.55;;
38262;SDS011;24054;50.128;19.730;2023-06-01T13:24:34;3.42;;;2.85;;
38262;SDS011;24054;50.128;19.730;2023-06-01T13:27:01;3.72;;;2.65;;
38262;SDS011;24054;50.128;19.730;2023-06-01T13:29:29;3.22;;;2.47;;
38262;SDS011;24054;50.128;19.730;2023-06-01T13:31:57;3.90;;;2.78;;
38262;SDS011;24054;50.128;19.730;2023-06-01T13:34:24;5.18;;;3.05;;
38262;SDS011;24054;50.128;19.730;2023-06-01T13:36:52;4.60;;;2.97;;
38262;SDS011;24054;50.128;19.730;2023-06-01T13:39:19;6.25;;;3.28;;
38262;SDS011;24054;50.128;19.730;2023-06-01T13:41:48;3.67;;;2.70;;
38262;SDS011;24054;50.128;19.730;2023-06-01T13:44:17;4.00;;;3.15;;
38262;SDS011;24054;50.128;19.730;2023-06-01T13:46:44;5.00;;;3.13;;
38262;SDS011;24054;50.128;19.730;2023-06-01T13:49:12;5.13;;;3.20;;
38262;SDS011;24054;50.128;19.730;2023-06-01T13:51:39;9.15;;;3.33;;
38262;SDS011;24054;50.128;19.730;2023-06-01T13:54:06;4.50;;;2.60;;
38262;SDS011;24054;50.128;19.730;2023-06-01T13:59:03;7.50;;;2.83;;
38262;SDS011;24054;50.128;19.730;2023-06-01T14:01:31;5.78;;;3.00;;
38262;SDS011;24054;50.128;19.730;2023-06-01T14:04:00;6.18;;;2.88;;
38262;SDS011;24054;50.128;19.730;2023-06-01T14:06:28;8.82;;;3.35;;
38262;SDS011;24054;50.128;19.730;2023-06-01T14:08:55;3.35;;;2.72;;
38262;SDS011;24054;50.128;19.730;2023-06-01T14:11:22;4.28;;;2.83;;
38262;SDS011;24054;50.128;19.730;2023-06-01T14:13:50;4.75;;;2.55;;
38262;SDS011;24054;50.128;19.730;2023-06-01T14:16:18;4.30;;;2.90;;
38262;SDS011;24054;50.128;19.730;2023-06-01T14:18:45;6.53;;;2.58;;
38262;SDS011;24054;50.128;19.730;2023-06-01T14:21:13;4.82;;;2.70;;
38262;SDS011;24054;50.128;19.730;2023-06-01T14:23:40;3.65;;;2.55;;
38262;SDS011;24054;50.128;19.730;2023-06-01T14:26:09;9.35;;;3.50;;
38262;SDS011;24054;50.128;19.730;2023-06-01T14:28:36;3.75;;;2.50;;
38262;SDS011;24054;50.128;19.730;2023-06-01T14:31:04;17.05;;;3.03;;
38262;SDS011;24054;50.128;19.730;2023-06-01T14:33:32;4.47;;;2.70;;
38262;SDS011;24054;50.128;19.730;2023-06-01T14:35:59;3.83;;;2.47;;
38262;SDS011;24054;50.128;19.730;2023-06-01T14:38:27;7.30;;;2.75;;
38262;SDS011;24054;50.128;19.730;2023-06-01T14:40:54;3.13;;;2.65;;
38262;SDS011;24054;50.128;19.730;2023-06-01T14:43:21;5.18;;;2.88;;
38262;SDS011;24054;50.128;19.730;2023-06-01T14:45:48;5.22;;;3.05;;
38262;SDS011;24054;50.128;19.730;2023-06-01T14:48:16;5.63;;;2.58;;
38262;SDS011;24054;50.128;19.730;2023-06-01T14:50:44;3.90;;;2.33;;
38262;SDS011;24054;50.128;19.730;2023-06-01T14:55:38;7.30;;;3.33;;
38262;SDS011;24054;50.128;19.730;2023-06-01T14:58:10;3.97;;;2.58;;
38262;SDS011;24054;50.128;19.730;2023-06-01T15:00:37;4.45;;;2.90;;
38262;SDS011;24054;50.128;19.730;2023-06-01T15:03:04;3.90;;;2.83;;
38262;SDS011;24054;50.128;19.730;2023-06-01T15:05:32;4.20;;;2.63;;
38262;SDS011;24054;50.128;19.730;2023-06-01T15:08:01;6.57;;;2.80;;
38262;SDS011;24054;50.128;19.730;2023-06-01T15:10:31;9.05;;;2.60;;
38262;SDS011;24054;50.128;19.730;2023-06-01T15:12:58;9.02;;;2.65;;
38262;SDS011;24054;50.128;19.730;2023-06-01T15:15:26;4.47;;;2.55;;
38262;SDS011;24054;50.128;19.730;2023-06-01T15:17:53;4.65;;;2.47;;
38262;SDS011;24054;50.128;19.730;2023-06-01T15:20:23;3.92;;;2.75;;
38262;SDS011;24054;50.128;19.730;2023-06-01T15:22:50;5.68;;;2.67;;
38262;SDS011;24054;50.128;19.730;2023-06-01T15:25:19;5.10;;;2.65;;
38262;SDS011;24054;50.128;19.730;2023-06-01T15:27:46;3.95;;;2.67;;
38262;SDS011;24054;50.128;19.730;2023-06-01T15:30:13;5.68;;;2.67;;
38262;SDS011;24054;50.128;19.730;2023-06-01T15:32:40;4.93;;;2.60;;
38262;SDS011;24054;50.128;19.730;2023-06-01T15:35:08;3.78;;;2.40;;
38262;SDS011;24054;50.128;19.730;2023-06-01T15:37:35;5.68;;;2.70;;
38262;SDS011;24054;50.128;19.730;2023-06-01T15:40:03;6.43;;;2.60;;
38262;SDS011;24054;50.128;19.730;2023-06-01T15:42:40;3.40;;;2.28;;
38262;SDS011;24054;50.128;19.730;2023-06-01T15:45:07;3.35;;;2.05;;
38262;SDS011;24054;50.128;19.730;2023-06-01T15:47:34;3.35;;;2.00;;
38262;SDS011;24054;50.128;19.730;2023-06-01T15:50:05;2.55;;;1.75;;
38262;SDS011;24054;50.128;19.730;2023-06-01T15:52:33;3.90;;;2.30;;
38262;SDS011;24054;50.128;19.730;2023-06-01T15:55:00;4.38;;;2.53;;
38262;SDS011;24054;50.128;19.730;2023-06-01T15:57:27;3.92;;;2.00;;
38262;SDS011;24054;50.128;19.730;2023-06-01T15:59:58;5.07;;;2.30;;
38262;SDS011;24054;50.128;19.730;2023-06-01T16:02:25;4.53;;;2.17;;
38262;SDS011;24054;50.128;19.730;2023-06-01T16:04:52;4.68;;;2.10;;
38262;SDS011;24054;50.128;19.730;2023-06-01T16:07:19;4.75;;;2.13;;
38262;SDS011;24054;50.128;19.730;2023-06-01T16:09:47;4.10;;;2.17;;
38262;SDS011;24054;50.128;19.730;2023-06-01T16:12:14;4.15;;;2.80;;
38262;SDS011;24054;50.128;19.730;2023-06-01T16:14:41;4.20;;;2.30;;
38262;SDS011;24054;50.128;19.730;2023-06-01T16:17:12;4.40;;;2.35;;
38262;SDS011;24054;50.128;19.730;2023-06-01T16:19:39;3.38;;;1.88;;
38262;SDS011;24054;50.128;19.730;2023-06-01T16:22:07;2.22;;;1.70;;
38262;SDS011;24054;50.128;19.730;2023-06-01T16:24:34;2.65;;;1.75;;
38262;SDS011;24054;50.128;19.730;2023-06-01T16:27:02;3.33;;;1.70;;
38262;SDS011;24054;50.128;19.730;2023-06-01T16:29:30;2.20;;;1.90;;
38262;SDS011;24054;50.128;19.730;2023-06-01T16:31:57;3.50;;;1.95;;
38262;SDS011;24054;50.128;19.730;2023-06-01T16:34:25;3.22;;;1.85;;
38262;SDS011;24054;50.128;19.730;2023-06-01T16:36:54;4.30;;;2.00;;
38262;SDS011;24054;50.128;19.730;2023-06-01T16:39:21;4.28;;;2.10;;
38262;SDS011;24054;50.128;19.730;2023-06-01T16:41:48;4.25;;;1.75;;
38262;SDS011;24054;50.128;19.730;2023-06-01T16:44:18;5.40;;;1.92;;
38262;SDS011;24054;50.128;19.730;2023-06-01T16:46:45;3.92;;;1.83;;
38262;SDS011;24054;50.128;19.730;2023-06-01T16:49:12;4.80;;;2.00;;
38262;SDS011;24054;50.128;19.730;2023-06-01T16:51:41;7.45;;;2.20;;
38262;SDS011;24054;50.128;19.730;2023-06-01T16:54:09;3.40;;;2.08;;
38262;SDS011;24054;50.128;19.730;2023-06-01T16:56:37;2.10;;;1.90;;
38262;SDS011;24054;50.128;19.730;2023-06-01T16:59:05;4.55;;;2.00;;
38262;SDS011;24054;50.128;19.730;2023-06-01T17:01:32;3.65;;;2.05;;
38262;SDS011;24054;50.128;19.730;2023-06-01T17:04:01;3.45;;;2.03;;
38262;SDS011;24054;50.128;19.730;2023-06-01T17:06:28;4.88;;;2.17;;
38262;SDS011;24054;50.128;19.730;2023-06-01T17:08:57;2.93;;;2.00;;
38262;SDS011;24054;50.128;19.730;2023-06-01T17:11:25;3.22;;;2.28;;
38262;SDS011;24054;50.128;19.730;2023-06-01T17:13:52;3.83;;;2.30;;
38262;SDS011;24054;50.128;19.730;2023-06-01T17:16:19;4.72;;;2.10;;
38262;SDS011;24054;50.128;19.730;2023-06-01T17:18:47;3.30;;;2.15;;
38262;SDS011;24054;50.128;19.730;2023-06-01T17:21:14;3.53;;;2.08;;
38262;SDS011;24054;50.128;19.730;2023-06-01T17:23:41;3.30;;;1.90;;
38262;SDS011;24054;50.128;19.730;2023-06-01T17:26:10;3.38;;;2.10;;
38262;SDS011;24054;50.128;19.730;2023-06-01T17:28:37;2.95;;;1.98;;
38262;SDS011;24054;50.128;19.730;2023-06-01T17:31:04;3.80;;;2.25;;
38262;SDS011;24054;50.128;19.730;2023-06-01T17:33:31;4.03;;;1.77;;
38262;SDS011;24054;50.128;19.730;2023-06-01T17:35:59;2.50;;;2.00;;
38262;SDS011;24054;50.128;19.730;2023-06-01T17:38:26;4.65;;;2.10;;
38262;SDS011;24054;50.128;19.730;2023-06-01T17:40:53;3.50;;;2.03;;
38262;SDS011;24054;50.128;19.730;2023-06-01T17:43:23;5.25;;;2.60;;
38262;SDS011;24054;50.128;19.730;2023-06-01T17:45:50;3.13;;;1.98;;
38262;SDS011;24054;50.128;19.730;2023-06-01T17:48:18;3.47;;;2.20;;
38262;SDS011;24054;50.128;19.730;2023-06-01T17:50:45;2.67;;;1.92;;
38262;SDS011;24054;50.128;19.730;2023-06-01T17:53:13;6.93;;;2.30;;
38262;SDS011;24054;50.128;19.730;2023-06-01T17:55:40;4.50;;;2.10;;
38262;SDS011;24054;50.128;19.730;2023-06-01T17:58:07;4.78;;;2.15;;
38262;SDS011;24054;50.128;19.730;2023-06-01T18:00:36;4.30;;;2.25;;
38262;SDS011;24054;50.128;19.730;2023-06-01T18:03:03;4.65;;;2.20;;
38262;SDS011;24054;50.128;19.730;2023-06-01T18:05:30;5.13;;;2.40;;
38262;SDS011;24054;50.128;19.730;2023-06-01T18:07:58;3.35;;;2.05;;
38262;SDS011;24054;50.128;19.730;2023-06-01T18:10:25;5.53;;;2.00;;
38262;SDS011;24054;50.128;19.730;2023-06-01T18:12:53;3.10;;;2.13;;
38262;SDS011;24054;50.128;19.730;2023-06-01T18:15:20;4.70;;;2.22;;
38262;SDS011;24054;50.128;19.730;2023-06-01T18:17:48;3.70;;;2.22;;
38262;SDS011;24054;50.128;19.730;2023-06-01T18:20:15;4.55;;;2.17;;
38262;SDS011;24054;50.128;19.730;2023-06-01T18:22:43;2.47;;;2.20;;
38262;SDS011;24054;50.128;19.730;2023-06-01T18:25:10;2.65;;;1.95;;
38262;SDS011;24054;50.128;19.730;2023-06-01T18:27:37;5.28;;;2.97;;
38262;SDS011;24054;50.128;19.730;2023-06-01T18:30:05;3.92;;;2.25;;
38262;SDS011;24054;50.128;19.730;2023-06-01T18:32:33;4.78;;;2.50;;
38262;SDS011;24054;50.128;19.730;2023-06-01T18:35:03;4.38;;;2.38;;
38262;SDS011;24054;50.128;19.730;2023-06-01T18:37:33;3.65;;;2.50;;
38262;SDS011;24054;50.128;19.730;2023-06-01T18:40:00;2.80;;;2.00;;
38262;SDS011;24054;50.128;19.730;2023-06-01T18:42:28;5.10;;;1.90;;
38262;SDS011;24054;50.128;19.730;2023-06-01T18:44:55;3.05;;;2.13;;
38262;SDS011;24054;50.128;19.730;2023-06-01T18:47:22;3.10;;;2.33;;
38262;SDS011;24054;50.128;19.730;2023-06-01T18:49:50;5.25;;;2.53;;